sensor_id;sensor_type;location;lat;lon;timestamp;pressure;altitude;pressure_sealevel;temperature;humidity
71857;BME280;63344;46.980;28.882;2023-02-14T00:01:23;101771.72;;;5.21;70.26
71857;BME280;63344;46.980;28.882;2023-02-14T00:03:53;101765.59;;;5.22;69.83
71857;BME280;63344;46.980;28.882;2023-02-14T00:06:20;101769.94;;;5.21;69.41
71857;BME280;63344;46.980;28.882;2023-02-14T00:08:47;101772.59;;;5.23;70.00
71857;BME280;63344;46.980;28.882;2023-02-14T00:11:15;101756.78;;;5.23;69.31
71857;BME280;63344;46.980;28.882;2023-02-14T00:13:42;101752.41;;;5.26;69.45
71857;BME280;63344;46.980;28.882;2023-02-14T00:16:30;101740.13;;;5.27;69.27
71857;BME280;63344;46.980;28.882;2023-02-14T00:18:58;101748.91;;;5.29;69.03
71857;BME280;63344;46.980;28.882;2023-02-14T00:21:34;101746.28;;;5.26;68.92
71857;BME280;63344;46.980;28.882;2023-02-14T00:24:17;101725.19;;;5.24;68.79
71857;BME280;63344;46.980;28.882;2023-02-14T00:26:46;101732.25;;;5.25;68.63
71857;BME280;63344;46.980;28.882;2023-02-14T00:29:23;101721.69;;;5.25;68.75
71857;BME280;63344;46.980;28.882;2023-02-14T00:31:50;101722.56;;;5.23;68.63
71857;BME280;63344;46.980;28.882;2023-02-14T00:34:18;101720.81;;;5.26;68.63
71857;BME280;63344;46.980;28.882;2023-02-14T00:36:45;101719.03;;;5.27;68.29
71857;BME280;63344;46.980;28.882;2023-02-14T00:39:14;101698.00;;;5.24;68.41
71857;BME280;63344;46.980;28.882;2023-02-14T00:41:41;101702.38;;;5.26;68.02
71857;BME280;63344;46.980;28.882;2023-02-14T00:44:12;101691.84;;;5.22;68.21
71857;BME280;63344;46.980;28.882;2023-02-14T00:46:39;101688.31;;;5.24;68.19
71857;BME280;63344;46.980;28.882;2023-02-14T00:49:06;101682.19;;;5.24;68.45
71857;BME280;63344;46.980;28.882;2023-02-14T00:51:34;101698.00;;;5.24;68.02
71857;BME280;63344;46.980;28.882;2023-02-14T00:54:01;101701.50;;;5.24;68.12
71857;BME280;63344;46.980;28.882;2023-02-14T00:56:29;101701.47;;;5.23;68.08
71857;BME280;63344;46.980;28.882;2023-02-14T00:58:57;101693.59;;;5.24;67.95
71857;BME280;63344;46.980;28.882;2023-02-14T01:01:24;101690.97;;;5.26;67.94
71857;BME280;63344;46.980;28.882;2023-02-14T01:03:51;101690.97;;;5.26;67.74
71857;BME280;63344;46.980;28.882;2023-02-14T01:06:19;101671.63;;;5.27;67.80
71857;BME280;63344;46.980;28.882;2023-02-14T01:08:46;101673.41;;;5.25;67.49
71857;BME280;63344;46.980;28.882;2023-02-14T01:11:19;101666.38;;;5.24;67.77
71857;BME280;63344;46.980;28.882;2023-02-14T01:13:48;101669.91;;;5.26;67.81
71857;BME280;63344;46.980;28.882;2023-02-14T01:16:18;101671.66;;;5.24;67.73
71857;BME280;63344;46.980;28.882;2023-02-14T01:18:47;101669.91;;;5.19;68.01
71857;BME280;63344;46.980;28.882;2023-02-14T01:21:24;101657.59;;;5.20;68.04
71857;BME280;63344;46.980;28.882;2023-02-14T01:23:53;101671.66;;;5.17;68.57
71857;BME280;63344;46.980;28.882;2023-02-14T01:26:23;101676.03;;;5.18;68.03
71857;BME280;63344;46.980;28.882;2023-02-14T01:28:51;101675.16;;;5.19;68.13
71857;BME280;63344;46.980;28.882;2023-02-14T01:31:24;101661.13;;;5.17;68.26
71857;BME280;63344;46.980;28.882;2023-02-14T01:33:52;101667.25;;;5.18;68.04
71857;BME280;63344;46.980;28.882;2023-02-14T01:36:31;101675.16;;;5.16;68.49
71857;BME280;63344;46.980;28.882;2023-02-14T01:39:00;101666.38;;;5.14;68.49
71857;BME280;63344;46.980;28.882;2023-02-14T01:41:31;101654.94;;;5.11;68.54
71857;BME280;63344;46.980;28.882;2023-02-14T01:44:04;101661.13;;;5.11;68.75
71857;BME280;63344;46.980;28.882;2023-02-14T01:46:35;101651.44;;;5.09;68.41
71857;BME280;63344;46.980;28.882;2023-02-14T01:49:11;101647.06;;;5.06;68.34
71857;BME280;63344;46.980;28.882;2023-02-14T01:52:08;101637.41;;;5.08;68.00
71857;BME280;63344;46.980;28.882;2023-02-14T01:54:41;101638.31;;;5.07;68.39
71857;BME280;63344;46.980;28.882;2023-02-14T01:57:13;101626.88;;;5.07;68.36
71857;BME280;63344;46.980;28.882;2023-02-14T01:59:46;101619.84;;;5.04;68.00
71857;BME280;63344;46.980;28.882;2023-02-14T02:02:14;101618.09;;;5.06;68.21
71857;BME280;63344;46.980;28.882;2023-02-14T02:04:43;101611.94;;;5.09;68.02
71857;BME280;63344;46.980;28.882;2023-02-14T02:07:16;101618.97;;;5.05;68.15
71857;BME280;63344;46.980;28.882;2023-02-14T02:09:54;101620.75;;;5.00;68.27
71857;BME280;63344;46.980;28.882;2023-02-14T02:12:23;101605.81;;;5.01;68.37
71857;BME280;63344;46.980;28.882;2023-02-14T02:14:53;101611.09;;;5.02;68.08
71857;BME280;63344;46.980;28.882;2023-02-14T02:39:20;101587.41;;;4.96;69.33
71857;BME280;63344;46.980;28.882;2023-02-14T02:42:12;101583.00;;;4.95;70.04
71857;BME280;63344;46.980;28.882;2023-02-14T02:47:37;101574.22;;;4.96;70.36
71857;BME280;63344;46.980;28.882;2023-02-14T02:50:46;101589.16;;;4.95;70.22
71857;BME280;63344;46.980;28.882;2023-02-14T02:56:08;101582.13;;;4.93;70.37
71857;BME280;63344;46.980;28.882;2023-02-14T02:59:01;101580.38;;;4.92;70.78
71857;BME280;63344;46.980;28.882;2023-02-14T03:01:38;101569.84;;;4.92;70.84
71857;BME280;63344;46.980;28.882;2023-02-14T03:04:10;101546.13;;;4.87;71.14
71857;BME280;63344;46.980;28.882;2023-02-14T03:06:58;101541.78;;;4.88;71.33
71857;BME280;63344;46.980;28.882;2023-02-14T03:18:07;101546.16;;;4.89;71.69
71857;BME280;63344;46.980;28.882;2023-02-14T03:23:54;101535.63;;;4.86;71.41
71857;BME280;63344;46.980;28.882;2023-02-14T03:26:41;101547.03;;;4.86;71.56
71857;BME280;63344;46.980;28.882;2023-02-14T03:34:37;101552.28;;;4.83;72.12
71857;BME280;63344;46.980;28.882;2023-02-14T03:37:32;101527.72;;;4.83;72.29
71857;BME280;63344;46.980;28.882;2023-02-14T03:40:04;101530.38;;;4.79;72.02
71857;BME280;63344;46.980;28.882;2023-02-14T03:42:53;101549.69;;;4.82;72.54
71857;BME280;63344;46.980;28.882;2023-02-14T03:45:51;101554.94;;;4.82;72.35
71857;BME280;63344;46.980;28.882;2023-02-14T03:48:22;101540.00;;;4.81;72.31
71857;BME280;63344;46.980;28.882;2023-02-14T03:50:51;101534.75;;;4.81;72.19
71857;BME280;63344;46.980;28.882;2023-02-14T03:53:24;101541.75;;;4.78;72.68
71857;BME280;63344;46.980;28.882;2023-02-14T03:58:33;101542.66;;;4.77;72.81
71857;BME280;63344;46.980;28.882;2023-02-14T04:01:17;101545.28;;;4.77;72.57
71857;BME280;63344;46.980;28.882;2023-02-14T04:03:47;101535.63;;;4.78;72.53
71857;BME280;63344;46.980;28.882;2023-02-14T04:06:17;101530.38;;;4.78;73.15
71857;BME280;63344;46.980;28.882;2023-02-14T04:08:44;101529.47;;;4.73;72.76
71857;BME280;63344;46.980;28.882;2023-02-14T04:11:12;101521.59;;;4.70;72.96
71857;BME280;63344;46.980;28.882;2023-02-14T04:13:39;101507.56;;;4.69;73.37
71857;BME280;63344;46.980;28.882;2023-02-14T04:16:07;101530.38;;;4.70;73.12
71857;BME280;63344;46.980;28.882;2023-02-14T04:18:35;101523.38;;;4.69;72.99
71857;BME280;63344;46.980;28.882;2023-02-14T04:21:22;101525.13;;;4.73;73.17
71857;BME280;63344;46.980;28.882;2023-02-14T04:23:49;101525.13;;;4.73;72.79
71857;BME280;63344;46.980;28.882;2023-02-14T04:26:16;101515.44;;;4.72;72.47
71857;BME280;63344;46.980;28.882;2023-02-14T04:28:44;101520.72;;;4.72;73.01
71857;BME280;63344;46.980;28.882;2023-02-14T04:31:12;101508.44;;;4.74;72.84
71857;BME280;63344;46.980;28.882;2023-02-14T04:33:39;101525.97;;;4.74;72.74
71857;BME280;63344;46.980;28.882;2023-02-14T04:36:09;101522.47;;;4.76;72.66
71857;BME280;63344;46.980;28.882;2023-02-14T04:38:39;101532.13;;;4.76;72.80
71857;BME280;63344;46.980;28.882;2023-02-14T04:41:09;101523.34;;;4.77;72.49
71857;BME280;63344;46.980;28.882;2023-02-14T04:43:36;101516.34;;;4.77;72.73
71857;BME280;63344;46.980;28.882;2023-02-14T04:46:03;101522.47;;;4.78;72.39
71857;BME280;63344;46.980;28.882;2023-02-14T04:48:30;101518.97;;;4.77;72.11
71857;BME280;63344;46.980;28.882;2023-02-14T04:50:58;101521.56;;;4.79;72.44
71857;BME280;63344;46.980;28.882;2023-02-14T04:53:25;101517.22;;;4.78;71.72
71857;BME280;63344;46.980;28.882;2023-02-14T04:55:54;101527.75;;;4.79;71.94
71857;BME280;63344;46.980;28.882;2023-02-14T04:58:21;101527.75;;;4.79;71.96
71857;BME280;63344;46.980;28.882;2023-02-14T05:00:49;101519.84;;;4.76;71.89
71857;BME280;63344;46.980;28.882;2023-02-14T05:03:16;101507.56;;;4.80;72.09
71857;BME280;63344;46.980;28.882;2023-02-14T05:05:45;101511.94;;;4.78;71.80
71857;BME280;63344;46.980;28.882;2023-02-14T05:08:13;101514.56;;;4.76;72.07
71857;BME280;63344;46.980;28.882;2023-02-14T05:10:44;101496.16;;;4.78;71.99
71857;BME280;63344;46.980;28.882;2023-02-14T05:13:12;101502.28;;;4.72;72.41
71857;BME280;63344;46.980;28.882;2023-02-14T05:15:40;101522.47;;;4.72;73.01
71857;BME280;63344;46.980;28.882;2023-02-14T05:18:07;101527.72;;;4.70;72.83
71857;BME280;63344;46.980;28.882;2023-02-14T05:20:35;101515.47;;;4.69;72.82
71857;BME280;63344;46.980;28.882;2023-02-14T05:23:02;101511.06;;;4.70;72.90
71857;BME280;63344;46.980;28.882;2023-02-14T05:25:35;101513.69;;;4.68;72.95
71857;BME280;63344;46.980;28.882;2023-02-14T05:28:02;101508.44;;;4.70;73.36
71857;BME280;63344;46.980;28.882;2023-02-14T05:30:30;101491.78;;;4.72;73.15
71857;BME280;63344;46.980;28.882;2023-02-14T05:32:57;101469.84;;;4.73;72.73
71857;BME280;63344;46.980;28.882;2023-02-14T05:35:28;101526.88;;;4.71;72.68
71857;BME280;63344;46.980;28.882;2023-02-14T05:37:56;101500.56;;;4.71;72.29
71857;BME280;63344;46.980;28.882;2023-02-14T05:40:24;101513.72;;;4.71;72.85
71857;BME280;63344;46.980;28.882;2023-02-14T05:42:51;101504.94;;;4.69;72.35
71857;BME280;63344;46.980;28.882;2023-02-14T05:45:19;101533.00;;;4.76;72.25
71857;BME280;63344;46.980;28.882;2023-02-14T05:47:46;101537.38;;;4.76;72.46
71857;BME280;63344;46.980;28.882;2023-02-14T05:50:16;101511.94;;;4.72;72.36
71857;BME280;63344;46.980;28.882;2023-02-14T05:52:44;101526.00;;;4.75;72.12
71857;BME280;63344;46.980;28.882;2023-02-14T05:55:13;101520.69;;;4.77;71.98
71857;BME280;63344;46.980;28.882;2023-02-14T05:57:40;101515.47;;;4.75;72.30
71857;BME280;63344;46.980;28.882;2023-02-14T06:00:09;101497.91;;;4.81;72.12
71857;BME280;63344;46.980;28.882;2023-02-14T06:02:36;101496.16;;;4.73;72.03
71857;BME280;63344;46.980;28.882;2023-02-14T06:05:03;101491.78;;;4.74;71.94
71857;BME280;63344;46.980;28.882;2023-02-14T06:07:30;101497.91;;;4.76;72.31
71857;BME280;63344;46.980;28.882;2023-02-14T06:09:58;101469.84;;;4.75;72.04
71857;BME280;63344;46.980;28.882;2023-02-14T06:12:27;101491.78;;;4.75;71.96
71857;BME280;63344;46.980;28.882;2023-02-14T06:14:54;101490.88;;;4.75;71.82
71857;BME280;63344;46.980;28.882;2023-02-14T06:17:21;101486.50;;;4.77;71.84
71857;BME280;63344;46.980;28.882;2023-02-14T06:19:48;101489.13;;;4.80;71.92
71857;BME280;63344;46.980;28.882;2023-02-14T06:22:16;101483.88;;;4.75;71.78
71857;BME280;63344;46.980;28.882;2023-02-14T06:24:43;101464.56;;;4.76;71.70
71857;BME280;63344;46.980;28.882;2023-02-14T06:27:11;101479.47;;;4.85;71.62
71857;BME280;63344;46.980;28.882;2023-02-14T06:29:39;101483.00;;;4.79;71.56
71857;BME280;63344;46.980;28.882;2023-02-14T06:32:06;101459.31;;;4.83;71.28
71857;BME280;63344;46.980;28.882;2023-02-14T06:34:33;101485.63;;;4.86;71.24
71857;BME280;63344;46.980;28.882;2023-02-14T06:37:01;101466.31;;;4.88;71.43
71857;BME280;63344;46.980;28.882;2023-02-14T06:39:28;101468.06;;;4.88;71.38
71857;BME280;63344;46.980;28.882;2023-02-14T06:41:55;101445.28;;;4.84;71.53
71857;BME280;63344;46.980;28.882;2023-02-14T06:44:23;101467.19;;;4.81;71.43
71857;BME280;63344;46.980;28.882;2023-02-14T06:46:50;101459.31;;;4.86;71.62
71857;BME280;63344;46.980;28.882;2023-02-14T06:49:17;101484.75;;;4.81;71.88
71857;BME280;63344;46.980;28.882;2023-02-14T06:51:44;101476.84;;;4.81;71.80
71857;BME280;63344;46.980;28.882;2023-02-14T06:54:14;101477.72;;;4.83;72.07
71857;BME280;63344;46.980;28.882;2023-02-14T06:56:44;101496.16;;;4.83;72.49
71857;BME280;63344;46.980;28.882;2023-02-14T06:59:13;101490.00;;;4.82;72.49
71857;BME280;63344;46.980;28.882;2023-02-14T07:01:41;101501.44;;;4.73;72.94
71857;BME280;63344;46.980;28.882;2023-02-14T07:04:22;101480.34;;;4.67;73.69
71857;BME280;63344;46.980;28.882;2023-02-14T07:06:50;101465.47;;;4.62;73.96
71857;BME280;63344;46.980;28.882;2023-02-14T07:09:18;101483.00;;;4.58;74.17
71857;BME280;63344;46.980;28.882;2023-02-14T07:11:46;101479.50;;;4.61;74.42
71857;BME280;63344;46.980;28.882;2023-02-14T07:14:14;101479.50;;;4.59;74.56
71857;BME280;63344;46.980;28.882;2023-02-14T07:16:54;101492.63;;;4.59;74.77
71857;BME280;63344;46.980;28.882;2023-02-14T07:19:22;101480.41;;;4.53;74.67
71857;BME280;63344;46.980;28.882;2023-02-14T07:21:50;101490.88;;;4.55;75.07
71857;BME280;63344;46.980;28.882;2023-02-14T07:24:18;101496.16;;;4.55;74.87
71857;BME280;63344;46.980;28.882;2023-02-14T07:26:45;101504.03;;;4.55;75.04
71857;BME280;63344;46.980;28.882;2023-02-14T07:29:14;101502.28;;;4.52;75.24
71857;BME280;63344;46.980;28.882;2023-02-14T07:31:41;101498.78;;;4.55;75.23
71857;BME280;63344;46.980;28.882;2023-02-14T07:34:09;101483.91;;;4.48;75.17
71857;BME280;63344;46.980;28.882;2023-02-14T07:36:37;101501.44;;;4.53;75.16
71857;BME280;63344;46.980;28.882;2023-02-14T07:39:05;101494.41;;;4.57;74.80
71857;BME280;63344;46.980;28.882;2023-02-14T07:41:33;101500.56;;;4.57;75.05
71857;BME280;63344;46.980;28.882;2023-02-14T07:44:03;101494.41;;;4.60;74.66
71857;BME280;63344;46.980;28.882;2023-02-14T07:46:32;101482.13;;;4.64;74.95
71857;BME280;63344;46.980;28.882;2023-02-14T07:49:00;101492.66;;;4.68;74.36
71857;BME280;63344;46.980;28.882;2023-02-14T07:51:28;101489.16;;;4.60;74.64
71857;BME280;63344;46.980;28.882;2023-02-14T07:53:57;101494.41;;;4.65;74.59
71857;BME280;63344;46.980;28.882;2023-02-14T07:56:24;101485.63;;;4.69;74.21
71857;BME280;63344;46.980;28.882;2023-02-14T07:58:52;101466.34;;;4.67;73.99
71857;BME280;63344;46.980;28.882;2023-02-14T08:01:20;101497.03;;;4.71;74.01
71857;BME280;63344;46.980;28.882;2023-02-14T08:03:53;101454.03;;;4.67;74.10
71857;BME280;63344;46.980;28.882;2023-02-14T08:06:24;101511.97;;;4.73;73.89
71857;BME280;63344;46.980;28.882;2023-02-14T08:08:54;101510.22;;;4.69;73.81
71857;BME280;63344;46.980;28.882;2023-02-14T08:11:22;101521.59;;;4.74;73.72
71857;BME280;63344;46.980;28.882;2023-02-14T08:14:16;101511.06;;;4.68;73.60
71857;BME280;63344;46.980;28.882;2023-02-14T08:16:45;101490.03;;;4.68;73.70
71857;BME280;63344;46.980;28.882;2023-02-14T08:19:13;101504.94;;;4.68;73.73
71857;BME280;63344;46.980;28.882;2023-02-14T08:21:40;101516.34;;;4.77;73.67
71857;BME280;63344;46.980;28.882;2023-02-14T08:24:07;101518.09;;;4.75;73.61
71857;BME280;63344;46.980;28.882;2023-02-14T08:26:35;101505.81;;;4.74;73.57
71857;BME280;63344;46.980;28.882;2023-02-14T08:29:03;101526.84;;;4.73;73.66
71857;BME280;63344;46.980;28.882;2023-02-14T08:31:32;101492.66;;;4.74;73.71
71857;BME280;63344;46.980;28.882;2023-02-14T08:34:06;101525.13;;;4.73;73.67
71857;BME280;63344;46.980;28.882;2023-02-14T08:36:33;101527.72;;;4.76;73.89
71857;BME280;63344;46.980;28.882;2023-02-14T08:39:04;101497.91;;;4.74;73.69
71857;BME280;63344;46.980;28.882;2023-02-14T08:41:31;101515.44;;;4.72;73.92
71857;BME280;63344;46.980;28.882;2023-02-14T08:43:59;101483.88;;;4.66;74.34
71857;BME280;63344;46.980;28.882;2023-02-14T08:46:29;101518.97;;;4.68;74.81
71857;BME280;63344;46.980;28.882;2023-02-14T08:48:56;101510.19;;;4.66;74.67
71857;BME280;63344;46.980;28.882;2023-02-14T08:51:23;101490.03;;;4.71;75.12
71857;BME280;63344;46.980;28.882;2023-02-14T08:54:10;101487.38;;;4.74;75.53
71857;BME280;63344;46.980;28.882;2023-02-14T08:56:37;101468.97;;;4.67;75.61
71857;BME280;63344;46.980;28.882;2023-02-14T08:59:06;101481.25;;;4.60;75.74
71857;BME280;63344;46.980;28.882;2023-02-14T09:01:34;101518.09;;;4.68;76.08
71857;BME280;63344;46.980;28.882;2023-02-14T09:04:02;101520.72;;;4.69;76.60
71857;BME280;63344;46.980;28.882;2023-02-14T09:06:37;101526.00;;;4.68;76.60
71857;BME280;63344;46.980;28.882;2023-02-14T09:09:08;101520.72;;;4.69;76.52
71857;BME280;63344;46.980;28.882;2023-02-14T09:11:38;101511.94;;;4.69;77.00
71857;BME280;63344;46.980;28.882;2023-02-14T09:14:05;101509.31;;;4.69;76.49
71857;BME280;63344;46.980;28.882;2023-02-14T09:16:32;101520.72;;;4.72;76.80
71857;BME280;63344;46.980;28.882;2023-02-14T09:19:00;101516.31;;;4.81;76.86
71857;BME280;63344;46.980;28.882;2023-02-14T09:21:28;101523.34;;;4.77;76.10
71857;BME280;63344;46.980;28.882;2023-02-14T09:23:57;101507.56;;;4.75;76.58
71857;BME280;63344;46.980;28.882;2023-02-14T09:26:25;101525.97;;;4.80;76.52
71857;BME280;63344;46.980;28.882;2023-02-14T09:28:53;101511.94;;;4.78;76.63
71857;BME280;63344;46.980;28.882;2023-02-14T09:31:25;101511.09;;;4.77;76.32
71857;BME280;63344;46.980;28.882;2023-02-14T09:33:52;101506.69;;;4.84;75.80
71857;BME280;63344;46.980;28.882;2023-02-14T09:36:20;101495.28;;;4.84;75.78
71857;BME280;63344;46.980;28.882;2023-02-14T09:39:06;101500.53;;;4.87;75.51
71857;BME280;63344;46.980;28.882;2023-02-14T09:44:30;101511.94;;;4.90;75.57
71857;BME280;63344;46.980;28.882;2023-02-14T09:49:44;101496.16;;;4.92;75.41
71857;BME280;63344;46.980;28.882;2023-02-14T09:52:17;101498.78;;;4.92;74.97
71857;BME280;63344;46.980;28.882;2023-02-14T09:54:52;101501.38;;;4.95;74.98
71857;BME280;63344;46.980;28.882;2023-02-14T09:57:42;101488.25;;;4.93;75.16
71857;BME280;63344;46.980;28.882;2023-02-14T10:00:34;101498.75;;;5.01;75.00
71857;BME280;63344;46.980;28.882;2023-02-14T10:11:09;101481.19;;;5.05;74.45
71857;BME280;63344;46.980;28.882;2023-02-14T10:13:43;101490.88;;;5.07;74.19
71857;BME280;63344;46.980;28.882;2023-02-14T10:19:07;101479.41;;;5.13;74.47
71857;BME280;63344;46.980;28.882;2023-02-14T10:22:11;101450.47;;;5.11;74.25
71857;BME280;63344;46.980;28.882;2023-02-14T10:27:26;101471.47;;;5.27;73.88
71857;BME280;63344;46.980;28.882;2023-02-14T10:29:58;101456.59;;;5.19;73.87
71857;BME280;63344;46.980;28.882;2023-02-14T10:35:34;101474.13;;;5.31;73.72
71857;BME280;63344;46.980;28.882;2023-02-14T10:38:25;101472.31;;;5.36;73.69
71857;BME280;63344;46.980;28.882;2023-02-14T10:41:26;101459.16;;;5.35;73.00
71857;BME280;63344;46.980;28.882;2023-02-14T10:44:14;101467.06;;;5.35;73.08
71857;BME280;63344;46.980;28.882;2023-02-14T10:46:58;101463.53;;;5.39;73.33
71857;BME280;63344;46.980;28.882;2023-02-14T10:49:33;101451.25;;;5.36;72.87
71857;BME280;63344;46.980;28.882;2023-02-14T10:52:35;101446.91;;;5.29;72.89
71857;BME280;63344;46.980;28.882;2023-02-14T10:55:21;101447.75;;;5.34;72.97
71857;BME280;63344;46.980;28.882;2023-02-14T10:58:01;101467.09;;;5.33;73.01
71857;BME280;63344;46.980;28.882;2023-02-14T11:00:36;101477.56;;;5.46;72.74
71857;BME280;63344;46.980;28.882;2023-02-14T11:03:07;101471.41;;;5.51;72.55
71857;BME280;63344;46.980;28.882;2023-02-14T11:05:38;101463.44;;;5.65;71.61
71857;BME280;63344;46.980;28.882;2023-02-14T11:10:44;101474.88;;;5.59;71.41
71857;BME280;63344;46.980;28.882;2023-02-14T11:13:30;101463.44;;;5.59;71.24
71857;BME280;63344;46.980;28.882;2023-02-14T11:16:04;101436.28;;;5.48;71.05
71857;BME280;63344;46.980;28.882;2023-02-14T11:18:32;101466.13;;;5.48;71.29
71857;BME280;63344;46.980;28.882;2023-02-14T11:21:04;101463.50;;;5.50;70.95
71857;BME280;63344;46.980;28.882;2023-02-14T11:26:04;101439.81;;;5.45;70.12
71857;BME280;63344;46.980;28.882;2023-02-14T11:28:34;101418.72;;;5.48;70.08
71857;BME280;63344;46.980;28.882;2023-02-14T11:31:01;101429.25;;;5.48;70.27
71857;BME280;63344;46.980;28.882;2023-02-14T11:33:42;101432.75;;;5.52;70.19
71857;BME280;63344;46.980;28.882;2023-02-14T11:36:14;101440.63;;;5.56;70.06
71857;BME280;63344;46.980;28.882;2023-02-14T11:38:44;101448.47;;;5.70;69.77
71857;BME280;63344;46.980;28.882;2023-02-14T11:41:22;101440.53;;;5.78;69.33
71857;BME280;63344;46.980;28.882;2023-02-14T11:44:10;101448.38;;;5.83;68.83
71857;BME280;63344;46.980;28.882;2023-02-14T11:46:39;101441.38;;;5.80;67.98
71857;BME280;63344;46.980;28.882;2023-02-14T11:49:33;101444.88;;;5.79;67.77
71857;BME280;63344;46.980;28.882;2023-02-14T11:52:08;101431.72;;;5.79;68.02
71857;BME280;63344;46.980;28.882;2023-02-14T11:54:39;101429.06;;;5.79;66.93
71857;BME280;63344;46.980;28.882;2023-02-14T11:57:12;101444.03;;;5.80;67.32
71857;BME280;63344;46.980;28.882;2023-02-14T11:59:46;101419.41;;;5.83;67.65
71857;BME280;63344;46.980;28.882;2023-02-14T12:02:37;101420.22;;;5.92;67.15
71857;BME280;63344;46.980;28.882;2023-02-14T12:08:28;101406.16;;;6.00;66.06
71857;BME280;63344;46.980;28.882;2023-02-14T12:11:10;101399.00;;;6.15;66.28
71857;BME280;63344;46.980;28.882;2023-02-14T12:13:54;101388.34;;;6.26;65.57
71857;BME280;63344;46.980;28.882;2023-02-14T12:16:38;101390.81;;;6.45;64.03
71857;BME280;63344;46.980;28.882;2023-02-14T12:19:27;101396.06;;;6.48;64.07
71857;BME280;63344;46.980;28.882;2023-02-14T12:22:04;101392.53;;;6.50;63.81
71857;BME280;63344;46.980;28.882;2023-02-14T12:24:37;101409.31;;;6.42;63.54
71857;BME280;63344;46.980;28.882;2023-02-14T12:27:31;101417.19;;;6.48;63.97
71857;BME280;63344;46.980;28.882;2023-02-14T12:30:21;101407.28;;;6.70;63.98
71857;BME280;63344;46.980;28.882;2023-02-14T12:32:53;101377.56;;;7.30;63.06
71857;BME280;63344;46.980;28.882;2023-02-14T12:35:58;101373.09;;;7.95;60.91
71857;BME280;63344;46.980;28.882;2023-02-14T12:38:40;101390.75;;;8.48;58.85
71857;BME280;63344;46.980;28.882;2023-02-14T12:58:34;101378.03;;;6.91;62.30
71857;BME280;63344;46.980;28.882;2023-02-14T13:06:55;101391.47;;;6.68;63.24
71857;BME280;63344;46.980;28.882;2023-02-14T13:09:47;101409.94;;;6.70;63.00
71857;BME280;63344;46.980;28.882;2023-02-14T13:15:53;101373.63;;;7.58;60.77
71857;BME280;63344;46.980;28.882;2023-02-14T13:18:39;101381.81;;;8.01;59.91
71857;BME280;63344;46.980;28.882;2023-02-14T13:21:13;101375.88;;;7.85;59.88
71857;BME280;63344;46.980;28.882;2023-02-14T13:23:49;101383.31;;;7.61;60.69
71857;BME280;63344;46.980;28.882;2023-02-14T13:26:26;101376.44;;;8.58;59.35
71857;BME280;63344;46.980;28.882;2023-02-14T13:29:08;101377.63;;;8.38;57.84
71857;BME280;63344;46.980;28.882;2023-02-14T13:31:37;101381.88;;;7.96;58.70
71857;BME280;63344;46.980;28.882;2023-02-14T13:36:45;101357.91;;;8.60;57.95
71857;BME280;63344;46.980;28.882;2023-02-14T13:39:24;101338.63;;;8.51;57.39
71857;BME280;63344;46.980;28.882;2023-02-14T13:41:55;101359.28;;;8.29;57.59
71857;BME280;63344;46.980;28.882;2023-02-14T13:44:46;101371.47;;;7.85;58.62
71857;BME280;63344;46.980;28.882;2023-02-14T13:47:21;101370.94;;;7.62;59.19
71857;BME280;63344;46.980;28.882;2023-02-14T13:49:59;101368.59;;;7.42;59.58
71857;BME280;63344;46.980;28.882;2023-02-14T13:52:55;101367.16;;;7.16;60.19
71857;BME280;63344;46.980;28.882;2023-02-14T13:55:33;101366.56;;;6.91;60.75
71857;BME280;63344;46.980;28.882;2023-02-14T13:58:11;101356.22;;;6.75;61.47
71857;BME280;63344;46.980;28.882;2023-02-14T14:00:49;101352.66;;;6.76;61.66
71857;BME280;63344;46.980;28.882;2023-02-14T14:06:04;101340.72;;;7.19;59.94
71857;BME280;63344;46.980;28.882;2023-02-14T14:08:40;101354.84;;;7.15;59.03
71857;BME280;63344;46.980;28.882;2023-02-14T14:21:26;101331.91;;;6.43;61.64
71857;BME280;63344;46.980;28.882;2023-02-14T14:26:36;101331.88;;;6.46;61.20
71857;BME280;63344;46.980;28.882;2023-02-14T14:29:18;101345.16;;;6.38;61.55
71857;BME280;63344;46.980;28.882;2023-02-14T14:31:47;101348.72;;;6.32;61.47
71857;BME280;63344;46.980;28.882;2023-02-14T14:34:19;101346.13;;;6.26;61.73
71857;BME280;63344;46.980;28.882;2023-02-14T14:36:48;101294.34;;;6.19;61.32
71857;BME280;63344;46.980;28.882;2023-02-14T14:39:30;101354.97;;;6.22;61.86
71857;BME280;63344;46.980;28.882;2023-02-14T14:42:12;101354.97;;;6.25;61.42
71857;BME280;63344;46.980;28.882;2023-02-14T14:44:48;101346.19;;;6.20;61.13
71857;BME280;63344;46.980;28.882;2023-02-14T14:47:22;101355.00;;;6.19;61.12
71857;BME280;63344;46.980;28.882;2023-02-14T14:49:58;101369.13;;;6.12;61.41
71857;BME280;63344;46.980;28.882;2023-02-14T14:52:28;101370.91;;;6.11;61.68
71857;BME280;63344;46.980;28.882;2023-02-14T14:54:56;101353.31;;;6.09;61.43
71857;BME280;63344;46.980;28.882;2023-02-14T14:57:29;101356.91;;;6.02;61.10
71857;BME280;63344;46.980;28.882;2023-02-14T15:00:17;101376.28;;;5.97;61.16
71857;BME280;63344;46.980;28.882;2023-02-14T15:11:15;101383.34;;;5.88;61.49
71857;BME280;63344;46.980;28.882;2023-02-14T15:14:07;101402.66;;;5.88;61.53
71857;BME280;63344;46.980;28.882;2023-02-14T15:22:17;101408.00;;;5.81;62.91
71857;BME280;63344;46.980;28.882;2023-02-14T15:24:46;101415.94;;;5.77;63.26
71857;BME280;63344;46.980;28.882;2023-02-14T15:27:20;101422.97;;;5.75;63.32
71857;BME280;63344;46.980;28.882;2023-02-14T15:32:46;101430.06;;;5.64;64.19
71857;BME280;63344;46.980;28.882;2023-02-14T15:35:26;101433.59;;;5.58;64.51
71857;BME280;63344;46.980;28.882;2023-02-14T15:37:58;101444.16;;;5.55;64.20
71857;BME280;63344;46.980;28.882;2023-02-14T15:40:30;101425.75;;;5.48;64.43